KBRD/BRD METAR and TAF weather

Enter ICAO airport designator
Station Type Date Time Source
KBRD METAR 2021/04/13 07:53 UTC NOAA

KBRD 130753Z AUTO 26011KT 1SM -SN BR BKN013 OVC025 M01/M03 A2985 RMK AO2 SLP120 P0001 T10111028


Station Type Date Time Source
KBRD Decoded METAR 2021/04/13 07:53 UTC NOAA

BRAINERD-CROW WING CO AIRPORT , MN, United States (KBRD) 46-24N 94-08W 372M
Apr 13, 2021 - 03:53 AM EDT / 2021.04.13 0753 UTC
Wind: from the W (260 degrees) at 13 MPH (11 KT):0
Visibility: 1 mile(s):0
Sky conditions: overcast
Weather: light snow; mist
Precipitation last hour: 0.01 inches
Temperature: 30.0 F (-1.1 C)
Windchill: 19 F (-7 C):1
Dew Point: 27.0 F (-2.8 C)
Relative Humidity: 88%
Pressure (altimeter): 29.85 in. Hg (1010 hPa)
ob: KBRD 130753Z AUTO 26011KT 1SM -SN BR BKN013 OVC025 M01/M03 A2985 RMK AO2 SLP120 P0001 T10111028
cycle: 8

Station Type Date Time Source
KBRD TAF 2021/04/13 06:24 UTC NOAA

TAF KBRD 130522Z 1306/1406 27011G16KT 3SM -SN BR OVC016
TEMPO 1306/1308 1SM -SN OVC009
FM130800 27011KT 5SM -SN BR OVC012
FM131300 27012G18KT 2SM -SN BR OVC014
FM132300 27010KT 6SM -SN BR OVC015

Example: see airport list